Time;durP1;ratioP1;P1;durP2;ratioP2;P2;SDS_P1;SDS_P2;PMS_P1;PMS_P2;Temp;Humidity;BMP_temperature;BMP_pressure;BME280_temperature;BME280_humidity;BME280_pressure;Samples;Min_cycle;Max_cycle;Signal;HPM_P1;HPM_P2
2021/07/17 00:00:55;;;;;;;21.30;9.52;;;20.90;99.90;;;;;;2107860;28;20411;-68
2021/07/17 00:01:59;;;;;;;25.23;9.48;;;20.90;99.90;;;;;;2107346;28;20020;-68
2021/07/17 00:03:02;;;;;;;20.85;9.50;;;20.90;99.90;;;;;;2108376;28;20027;-68
2021/07/17 00:04:03;;;;;;;22.95;9.65;;;20.90;99.90;;;;;;2108737;28;20020;-68
2021/07/17 00:05:14;;;;;;;24.05;9.48;;;20.90;99.90;;;;;;2108568;28;20016;-68
2021/07/17 00:06:14;;;;;;;21.83;8.63;;;20.90;99.90;;;;;;2108518;28;20020;-68
2021/07/17 00:07:15;;;;;;;18.75;8.77;;;20.90;99.90;;;;;;2108039;28;20020;-68
2021/07/17 00:08:16;;;;;;;23.35;9.70;;;20.90;99.90;;;;;;2108720;28;20020;-68
2021/07/17 00:09:16;;;;;;;20.83;9.82;;;20.90;99.90;;;;;;2108703;28;20024;-68
2021/07/17 00:10:32;;;;;;;24.08;9.85;;;20.90;99.90;;;;;;2108720;28;20039;-68
2021/07/17 00:11:33;;;;;;;23.17;9.65;;;20.90;99.90;;;;;;2107856;28;20034;-68
2021/07/17 00:12:34;;;;;;;22.10;9.02;;;20.90;99.90;;;;;;2108592;28;20036;-68
2021/07/17 00:13:34;;;;;;;23.33;9.18;;;20.90;99.90;;;;;;2108533;28;20024;-68
2021/07/17 00:14:35;;;;;;;20.73;8.95;;;20.90;99.90;;;;;;2108847;28;20077;-68
2021/07/17 00:15:36;;;;;;;24.08;10.27;;;20.90;99.90;;;;;;2108235;28;20036;-68
2021/07/17 00:16:37;;;;;;;27.85;10.75;;;20.90;99.90;;;;;;2108400;28;20048;-68
2021/07/17 00:17:38;;;;;;;28.45;10.45;;;20.90;99.90;;;;;;2108370;28;20028;-68
2021/07/17 00:18:38;;;;;;;25.73;10.38;;;20.90;99.90;;;;;;2108491;28;20032;-68
2021/07/17 00:19:40;;;;;;;30.65;10.23;;;20.90;99.90;;;;;;2108461;28;20102;-68
2021/07/17 00:20:42;;;;;;;21.50;10.07;;;20.90;99.90;;;;;;2108557;28;20114;-68
2021/07/17 00:21:42;;;;;;;24.00;9.52;;;20.80;99.90;;;;;;2107711;28;20057;-68
2021/07/17 00:22:43;;;;;;;23.38;9.80;;;20.80;99.90;;;;;;2108651;28;20046;-68
2021/07/17 00:23:44;;;;;;;26.92;10.43;;;20.80;99.90;;;;;;2108540;28;20027;-68
2021/07/17 00:24:44;;;;;;;25.98;10.60;;;20.90;99.90;;;;;;2108583;28;20032;-68
2021/07/17 00:25:48;;;;;;;23.73;9.60;;;20.80;99.90;;;;;;2108578;28;20487;-68
2021/07/17 00:26:49;;;;;;;22.73;10.00;;;20.80;99.90;;;;;;2107613;28;20070;-68
2021/07/17 00:27:50;;;;;;;23.77;10.10;;;20.80;99.90;;;;;;2107762;28;20032;-68
2021/07/17 00:28:51;;;;;;;27.10;10.57;;;20.80;99.90;;;;;;2108442;28;20097;-68
2021/07/17 00:29:51;;;;;;;23.58;9.75;;;20.80;99.90;;;;;;2108483;28;20152;-68
2021/07/17 00:30:52;;;;;;;37.15;11.40;;;20.80;99.90;;;;;;2108492;28;20024;-68
2021/07/17 00:31:54;;;;;;;24.35;10.02;;;20.80;99.90;;;;;;2107915;28;20109;-68
2021/07/17 00:32:55;;;;;;;25.55;10.70;;;20.80;99.90;;;;;;2108663;28;20027;-68
2021/07/17 00:33:57;;;;;;;30.13;10.85;;;20.80;99.90;;;;;;2108775;28;20016;-68
2021/07/17 00:34:57;;;;;;;26.92;9.63;;;20.80;99.90;;;;;;2108467;28;20012;-68
2021/07/17 00:35:58;;;;;;;29.63;11.40;;;20.80;99.90;;;;;;2108606;28;20489;-68
2021/07/17 00:36:58;;;;;;;27.50;10.75;;;20.70;99.90;;;;;;2107844;28;20031;-68
2021/07/17 00:37:59;;;;;;;26.52;9.98;;;20.70;99.90;;;;;;2108563;28;20024;-68
2021/07/17 00:38:59;;;;;;;25.30;9.90;;;20.70;99.90;;;;;;2108346;28;20101;-68
2021/07/17 00:40:01;;;;;;;24.63;10.80;;;20.80;99.90;;;;;;2108617;28;20021;-68
2021/07/17 00:41:02;;;;;;;26.63;10.98;;;20.70;99.90;;;;;;2108451;28;20118;-68
2021/07/17 00:42:03;;;;;;;22.95;9.93;;;20.70;99.90;;;;;;2107919;28;20012;-68
2021/07/17 00:43:03;;;;;;;25.00;9.98;;;20.70;99.90;;;;;;2108458;28;20700;-68
2021/07/17 00:44:06;;;;;;;26.33;9.68;;;20.70;99.90;;;;;;2108642;28;20054;-68
2021/07/17 00:45:08;;;;;;;22.33;9.73;;;20.70;99.90;;;;;;2108334;28;20561;-68
2021/07/17 00:46:08;;;;;;;25.73;10.32;;;20.70;99.90;;;;;;2108427;28;20107;-68
2021/07/17 00:47:10;;;;;;;25.23;10.30;;;20.70;99.90;;;;;;2108064;28;20016;-68
2021/07/17 00:48:10;;;;;;;27.20;10.93;;;20.70;99.90;;;;;;2108772;28;20012;-68
2021/07/17 00:49:11;;;;;;;31.10;10.77;;;20.70;99.90;;;;;;2108337;28;20020;-68
2021/07/17 00:50:16;;;;;;;31.48;10.00;;;20.70;99.90;;;;;;2108658;28;20035;-68
2021/07/17 00:51:17;;;;;;;30.08;10.68;;;20.70;99.90;;;;;;2108316;28;20032;-68
2021/07/17 00:52:17;;;;;;;26.10;10.45;;;20.70;99.90;;;;;;2107993;28;20047;-68
2021/07/17 00:53:18;;;;;;;20.60;10.77;;;20.70;99.90;;;;;;2108042;28;20031;-68
2021/07/17 00:54:21;;;;;;;22.55;10.50;;;20.70;99.90;;;;;;2106318;28;20107;-68
2021/07/17 00:55:26;;;;;;;28.55;11.35;;;20.70;99.90;;;;;;2106831;28;20117;-68
2021/07/17 00:56:28;;;;;;;26.33;11.00;;;20.70;99.90;;;;;;2107314;28;20057;-68
2021/07/17 00:57:33;;;;;;;25.17;10.30;;;20.70;99.90;;;;;;2106998;28;20084;-69
2021/07/17 00:58:36;;;;;;;25.42;9.65;;;20.70;99.90;;;;;;2107149;28;20047;-68
2021/07/17 00:59:39;;;;;;;21.17;10.13;;;20.70;99.90;;;;;;2106855;28;20074;-68
2021/07/17 01:00:40;;;;;;;31.30;10.32;;;20.70;99.90;;;;;;2107576;28;20101;-69
2021/07/17 01:01:41;;;;;;;21.92;9.55;;;20.60;99.90;;;;;;2106176;28;20086;-69
2021/07/17 01:02:55;;;;;;;28.73;10.85;;;20.60;99.90;;;;;;2107087;28;20035;-69
2021/07/17 01:03:56;;;;;;;22.70;10.02;;;20.60;99.90;;;;;;2106768;28;20390;-69
2021/07/17 01:04:56;;;;;;;23.30;9.77;;;20.60;99.90;;;;;;2107215;28;20070;-69
2021/07/17 01:05:57;;;;;;;29.38;10.38;;;20.60;99.90;;;;;;2106955;28;20072;-69
2021/07/17 01:06:59;;;;;;;22.20;10.15;;;20.60;99.90;;;;;;2106635;28;20024;-69
2021/07/17 01:08:00;;;;;;;24.83;9.32;;;20.60;99.90;;;;;;2106975;28;20024;-69
2021/07/17 01:09:00;;;;;;;23.75;10.68;;;20.60;99.90;;;;;;2107171;28;20024;-69
2021/07/17 01:10:04;;;;;;;27.60;10.18;;;20.60;99.90;;;;;;2107045;28;20028;-68
2021/07/17 01:11:04;;;;;;;23.92;10.15;;;20.60;99.90;;;;;;2106875;28;20016;-68
2021/07/17 01:12:05;;;;;;;24.50;9.43;;;20.60;99.90;;;;;;2106208;28;20020;-69
2021/07/17 01:13:06;;;;;;;20.33;9.82;;;20.60;99.90;;;;;;2107219;28;20050;-69
2021/07/17 01:14:07;;;;;;;29.77;10.90;;;20.50;99.90;;;;;;2106818;28;20033;-69
2021/07/17 01:15:08;;;;;;;22.65;10.98;;;20.50;99.90;;;;;;2107045;28;20337;-69
2021/07/17 01:16:09;;;;;;;22.80;10.05;;;20.50;99.90;;;;;;2106771;28;20050;-69
2021/07/17 01:17:10;;;;;;;29.33;10.38;;;20.50;99.90;;;;;;2107055;28;20024;-69
2021/07/17 01:18:11;;;;;;;23.42;10.75;;;20.50;99.90;;;;;;2106764;28;20028;-69
2021/07/17 01:19:12;;;;;;;24.20;9.38;;;20.50;99.90;;;;;;2106897;28;20103;-69
2021/07/17 01:20:16;;;;;;;28.88;11.25;;;20.50;99.90;;;;;;2106862;28;20019;-69
2021/07/17 01:21:19;;;;;;;25.13;9.68;;;20.50;99.90;;;;;;2107182;28;20409;-69
2021/07/17 01:22:20;;;;;;;23.38;9.52;;;20.50;99.90;;;;;;2105984;28;20032;-69
2021/07/17 01:23:21;;;;;;;24.05;9.55;;;20.50;99.90;;;;;;2107082;28;20020;-69
2021/07/17 01:24:24;;;;;;;27.45;10.65;;;20.50;99.90;;;;;;2106682;28;20073;-69
2021/07/17 01:25:28;;;;;;;24.67;9.98;;;20.50;99.90;;;;;;2107086;28;20018;-69
2021/07/17 01:26:29;;;;;;;29.83;10.88;;;20.50;99.90;;;;;;2106568;28;20035;-69
2021/07/17 01:27:30;;;;;;;22.50;9.75;;;20.40;99.90;;;;;;2106692;28;20020;-69
2021/07/17 01:28:31;;;;;;;22.42;10.23;;;20.40;99.90;;;;;;2106806;28;20076;-68
2021/07/17 01:29:33;;;;;;;24.77;9.80;;;20.40;99.90;;;;;;2106890;28;20121;-69
2021/07/17 01:30:36;;;;;;;27.67;9.65;;;20.40;99.90;;;;;;2106650;28;20475;-69
2021/07/17 01:31:37;;;;;;;22.10;9.50;;;20.40;99.90;;;;;;2106231;28;20024;-69
2021/07/17 01:32:38;;;;;;;23.83;9.95;;;20.40;99.90;;;;;;2106803;28;20023;-69
2021/07/17 01:33:40;;;;;;;29.20;10.50;;;20.40;99.90;;;;;;2106850;28;20059;-69
2021/07/17 01:34:40;;;;;;;22.33;9.63;;;20.40;99.90;;;;;;2106486;28;20031;-69
2021/07/17 01:35:41;;;;;;;27.20;10.63;;;20.40;99.90;;;;;;2106740;28;20020;-69
2021/07/17 01:36:42;;;;;;;24.45;10.13;;;20.30;99.90;;;;;;2106731;28;20066;-69
2021/07/17 01:37:42;;;;;;;26.33;9.98;;;20.30;99.90;;;;;;2106807;28;20406;-69
2021/07/17 01:38:43;;;;;;;22.33;9.77;;;20.30;99.90;;;;;;2106455;28;20032;-69
2021/07/17 01:39:44;;;;;;;20.88;10.15;;;20.30;99.90;;;;;;2106768;28;20032;-69
2021/07/17 01:40:50;;;;;;;22.70;10.18;;;20.30;99.90;;;;;;2106802;28;20102;-69
2021/07/17 01:41:51;;;;;;;22.95;10.25;;;20.40;99.90;;;;;;2106109;28;20407;-69
2021/07/17 01:42:54;;;;;;;19.58;10.18;;;20.30;99.90;;;;;;2106583;28;20032;-68
2021/07/17 01:43:57;;;;;;;28.15;9.82;;;20.40;99.90;;;;;;2106906;28;20075;-69
2021/07/17 01:44:57;;;;;;;24.55;9.90;;;20.40;99.90;;;;;;2106610;28;20008;-69
2021/07/17 01:46:00;;;;;;;25.00;9.55;;;20.30;99.90;;;;;;2106878;28;20031;-69
2021/07/17 01:47:00;;;;;;;23.58;10.02;;;20.30;99.90;;;;;;2106372;28;20055;-69
2021/07/17 01:48:02;;;;;;;21.77;9.65;;;20.30;99.90;;;;;;2106874;28;20031;-69
2021/07/17 01:49:03;;;;;;;25.45;10.10;;;20.30;99.90;;;;;;2106425;28;20078;-69
2021/07/17 01:50:07;;;;;;;23.38;10.77;;;20.30;99.90;;;;;;2106752;28;20541;-69
2021/07/17 01:51:10;;;;;;;23.58;9.60;;;20.30;99.90;;;;;;2106654;28;20031;-69
2021/07/17 01:52:11;;;;;;;23.27;10.32;;;20.30;99.90;;;;;;2106333;28;20099;-69
2021/07/17 01:53:13;;;;;;;25.42;9.63;;;20.30;99.90;;;;;;2103103;28;20028;-69
2021/07/17 01:54:13;;;;;;;25.30;9.95;;;20.30;99.90;;;;;;2106456;28;20050;-68
2021/07/17 01:55:14;;;;;;;18.75;9.15;;;20.30;99.90;;;;;;2106450;28;20762;-69
2021/07/17 01:56:15;;;;;;;28.20;10.52;;;20.30;99.90;;;;;;2106614;28;20020;-69
2021/07/17 01:57:16;;;;;;;26.88;10.32;;;20.20;99.90;;;;;;2106376;28;20054;-69
2021/07/17 01:58:17;;;;;;;20.83;9.68;;;20.30;99.90;;;;;;2106661;28;20133;-69
2021/07/17 01:59:17;;;;;;;21.95;9.48;;;20.30;99.90;;;;;;2106349;28;20035;-69
2021/07/17 02:00:20;;;;;;;22.73;10.10;;;20.20;99.90;;;;;;2106573;28;20333;-69
2021/07/17 02:01:22;;;;;;;22.38;9.80;;;20.30;99.90;;;;;;2106162;28;20017;-69
2021/07/17 02:02:23;;;;;;;24.17;9.75;;;20.30;99.90;;;;;;2106417;28;20024;-69
2021/07/17 02:03:23;;;;;;;20.92;8.93;;;20.20;99.90;;;;;;2106358;28;20035;-69
2021/07/17 02:04:24;;;;;;;20.23;8.82;;;20.30;99.90;;;;;;2106666;28;20508;-69
2021/07/17 02:05:25;;;;;;;21.60;10.68;;;20.30;99.90;;;;;;2106298;28;20020;-69
2021/07/17 02:06:29;;;;;;;27.67;10.85;;;20.30;99.90;;;;;;2106625;28;20028;-69
2021/07/17 02:07:29;;;;;;;22.92;10.15;;;20.30;99.90;;;;;;2106500;28;20021;-69
2021/07/17 02:08:32;;;;;;;25.88;10.65;;;20.30;99.90;;;;;;2106529;28;20036;-69
2021/07/17 02:09:33;;;;;;;25.50;11.13;;;20.30;99.90;;;;;;2106299;28;20412;-69
2021/07/17 02:10:35;;;;;;;19.65;9.30;;;20.30;99.90;;;;;;2106336;28;20031;-69
2021/07/17 02:11:36;;;;;;;23.38;10.05;;;20.30;99.90;;;;;;2105873;28;20020;-69
2021/07/17 02:13:06;;;;;;;33.85;10.90;;;20.30;99.90;;;;;;2106548;28;20092;-69
2021/07/17 02:14:07;;;;;;;25.35;9.25;;;20.30;99.90;;;;;;2105624;28;20016;-69
2021/07/17 02:15:08;;;;;;;22.73;10.20;;;20.30;99.90;;;;;;2105899;28;20103;-68
2021/07/17 02:16:08;;;;;;;23.90;10.93;;;20.30;99.90;;;;;;2106201;28;20066;-69
2021/07/17 02:17:09;;;;;;;21.90;9.77;;;20.30;99.90;;;;;;2106556;28;20034;-69
2021/07/17 02:18:11;;;;;;;22.88;9.32;;;20.30;99.90;;;;;;2106481;28;20037;-69
2021/07/17 02:19:22;;;;;;;22.45;9.40;;;20.30;99.90;;;;;;2106001;28;20391;-69
2021/07/17 02:20:23;;;;;;;23.23;10.40;;;20.30;99.90;;;;;;2106137;28;20379;-69
2021/07/17 02:21:24;;;;;;;21.45;9.07;;;20.30;99.90;;;;;;2106128;28;20028;-69
2021/07/17 02:22:24;;;;;;;23.65;10.63;;;20.30;99.90;;;;;;2106242;28;20073;-69
2021/07/17 02:23:25;;;;;;;25.45;10.85;;;20.30;99.90;;;;;;2106639;28;20020;-69
2021/07/17 02:24:26;;;;;;;23.52;10.55;;;20.30;99.90;;;;;;2106149;28;20028;-69
2021/07/17 02:25:26;;;;;;;21.85;9.30;;;20.30;99.90;;;;;;2106642;28;20020;-69
2021/07/17 02:26:27;;;;;;;21.95;9.38;;;20.30;99.90;;;;;;2106178;28;20027;-69
2021/07/17 02:27:27;;;;;;;20.92;9.57;;;20.30;99.90;;;;;;2106567;28;20024;-69
2021/07/17 02:28:28;;;;;;;24.70;9.95;;;20.30;99.90;;;;;;2105956;28;20060;-69
2021/07/17 02:29:29;;;;;;;32.60;10.70;;;20.20;99.90;;;;;;2106597;28;20382;-69
2021/07/17 02:30:29;;;;;;;24.88;10.98;;;20.30;99.90;;;;;;2106252;28;20522;-68
2021/07/17 02:31:30;;;;;;;23.88;10.25;;;20.30;99.90;;;;;;2105747;28;20020;-69
2021/07/17 02:32:30;;;;;;;25.10;10.73;;;20.30;99.90;;;;;;2106396;28;20024;-69
2021/07/17 02:33:31;;;;;;;21.67;9.75;;;20.30;99.90;;;;;;2106506;28;20020;-69
2021/07/17 02:34:32;;;;;;;26.45;10.30;;;20.20;99.90;;;;;;2106276;28;20032;-69
2021/07/17 02:35:33;;;;;;;19.52;9.27;;;20.30;99.90;;;;;;2106465;28;20379;-68
2021/07/17 02:36:33;;;;;;;25.05;10.38;;;20.30;99.90;;;;;;2106119;28;20031;-69
2021/07/17 02:37:34;;;;;;;29.23;10.35;;;20.30;99.90;;;;;;2106444;28;20031;-69
2021/07/17 02:38:35;;;;;;;23.63;9.93;;;20.20;99.90;;;;;;2106116;28;20091;-69
2021/07/17 02:39:35;;;;;;;23.95;9.05;;;20.20;99.90;;;;;;2106215;28;20020;-69
2021/07/17 02:40:36;;;;;;;21.48;10.00;;;20.20;99.90;;;;;;2106053;28;20017;-69
2021/07/17 02:41:37;;;;;;;26.48;9.70;;;20.20;99.90;;;;;;2105554;28;20031;-69
2021/07/17 02:42:38;;;;;;;21.48;9.73;;;20.20;99.90;;;;;;2106215;28;20366;-69
2021/07/17 02:43:38;;;;;;;23.45;10.77;;;20.20;99.90;;;;;;2106158;28;20020;-69
2021/07/17 02:44:39;;;;;;;19.05;9.60;;;20.20;99.90;;;;;;2106218;28;20020;-69
2021/07/17 02:45:39;;;;;;;18.95;8.25;;;20.20;99.90;;;;;;2106337;28;20056;-69
2021/07/17 02:46:40;;;;;;;17.67;9.23;;;20.20;99.90;;;;;;2106088;28;20028;-68
2021/07/17 02:47:40;;;;;;;19.25;8.75;;;20.20;99.90;;;;;;2106379;28;20031;-69
2021/07/17 02:48:41;;;;;;;21.00;10.40;;;20.20;99.90;;;;;;2106133;28;20108;-69
2021/07/17 02:49:42;;;;;;;20.88;9.48;;;20.20;99.90;;;;;;2106338;28;20038;-69
2021/07/17 02:50:43;;;;;;;21.80;9.85;;;20.20;99.90;;;;;;2106304;28;20024;-69
2021/07/17 02:51:43;;;;;;;21.13;10.40;;;20.20;99.90;;;;;;2105584;28;20488;-69
2021/07/17 02:52:44;;;;;;;20.50;9.27;;;20.30;99.90;;;;;;2106155;28;20017;-69
2021/07/17 02:53:45;;;;;;;21.30;10.15;;;20.20;99.90;;;;;;2105881;28;20031;-69
2021/07/17 02:54:46;;;;;;;20.98;9.88;;;20.30;99.90;;;;;;2106020;28;20036;-69
2021/07/17 02:55:46;;;;;;;23.58;8.73;;;20.30;99.90;;;;;;2105991;28;20058;-69
2021/07/17 02:56:47;;;;;;;20.40;8.80;;;20.20;99.90;;;;;;2106384;28;20032;-69
2021/07/17 02:57:48;;;;;;;23.10;10.05;;;20.30;99.90;;;;;;2106041;28;20059;-69
2021/07/17 02:58:48;;;;;;;17.33;9.25;;;20.20;99.90;;;;;;2106393;28;20024;-69
2021/07/17 02:59:49;;;;;;;20.42;9.63;;;20.20;99.90;;;;;;2105830;28;20028;-69
2021/07/17 03:00:54;;;;;;;23.75;9.32;;;20.20;99.90;;;;;;2106215;28;20491;-69
2021/07/17 03:01:54;;;;;;;18.10;9.52;;;20.20;99.90;;;;;;2105459;28;20423;-69
2021/07/17 03:02:55;;;;;;;20.63;8.80;;;20.20;99.90;;;;;;2106063;28;20104;-69
2021/07/17 03:03:55;;;;;;;21.52;9.07;;;20.20;99.90;;;;;;2106012;28;20103;-69
2021/07/17 03:04:56;;;;;;;24.75;9.95;;;20.20;99.90;;;;;;2106112;28;20479;-69
2021/07/17 03:05:56;;;;;;;23.02;10.20;;;20.20;99.90;;;;;;2105895;28;20039;-69
2021/07/17 03:06:57;;;;;;;34.60;10.75;;;20.20;99.90;;;;;;2106232;28;20016;-69
2021/07/17 03:07:57;;;;;;;30.13;10.02;;;20.20;99.90;;;;;;2105735;28;20028;-69
2021/07/17 03:08:58;;;;;;;16.50;9.23;;;20.10;99.90;;;;;;2106142;28;20328;-69
2021/07/17 03:09:59;;;;;;;15.75;8.65;;;20.10;99.90;;;;;;2105940;28;20508;-69
2021/07/17 03:10:59;;;;;;;19.58;9.13;;;20.10;99.90;;;;;;2106239;28;20467;-69
2021/07/17 03:12:00;;;;;;;21.10;9.95;;;20.10;99.90;;;;;;2105321;28;20637;-69
2021/07/17 03:13:00;;;;;;;25.65;10.77;;;20.10;99.90;;;;;;2106211;28;20030;-69
2021/07/17 03:14:02;;;;;;;21.70;9.48;;;20.10;99.90;;;;;;2105946;28;20039;-69
2021/07/17 03:15:03;;;;;;;18.98;9.10;;;20.10;99.90;;;;;;2106019;28;20039;-69
2021/07/17 03:16:04;;;;;;;22.80;9.45;;;20.10;99.90;;;;;;2105857;28;20038;-69
2021/07/17 03:17:05;;;;;;;19.95;9.52;;;20.10;99.90;;;;;;2105288;28;20047;-69
2021/07/17 03:18:05;;;;;;;19.00;9.30;;;20.10;99.90;;;;;;2106077;28;20024;-69
2021/07/17 03:19:07;;;;;;;21.85;9.32;;;20.10;99.90;;;;;;2105810;28;20032;-69
2021/07/17 03:20:08;;;;;;;20.92;9.15;;;20.10;99.90;;;;;;2105947;28;20023;-69
2021/07/17 03:21:10;;;;;;;21.73;9.70;;;20.10;99.90;;;;;;2106141;28;20091;-68
2021/07/17 03:22:10;;;;;;;24.15;9.70;;;20.10;99.90;;;;;;2105418;28;20061;-69
2021/07/17 03:23:12;;;;;;;17.42;8.82;;;20.00;99.90;;;;;;2106067;28;20070;-69
2021/07/17 03:24:12;;;;;;;21.98;9.52;;;20.10;99.90;;;;;;2105889;28;20459;-69
2021/07/17 03:25:13;;;;;;;24.13;9.93;;;20.10;99.90;;;;;;2105997;28;20095;-69
2021/07/17 03:26:14;;;;;;;21.90;9.25;;;20.10;99.90;;;;;;2105927;28;20033;-69
2021/07/17 03:27:15;;;;;;;21.42;8.60;;;20.10;99.90;;;;;;2105904;28;20493;-69
2021/07/17 03:28:15;;;;;;;18.85;8.98;;;20.10;99.90;;;;;;2105525;28;20604;-68
2021/07/17 03:29:16;;;;;;;23.17;9.35;;;20.10;99.90;;;;;;2105903;28;20027;-68
2021/07/17 03:30:17;;;;;;;22.55;9.63;;;20.10;99.90;;;;;;2106281;28;20070;-69
2021/07/17 03:31:28;;;;;;;25.55;9.98;;;20.10;99.90;;;;;;2105759;28;20115;-69
2021/07/17 03:32:29;;;;;;;20.27;9.57;;;20.10;99.90;;;;;;2105895;28;20035;-69
2021/07/17 03:33:29;;;;;;;19.70;9.23;;;20.00;99.90;;;;;;2105954;28;20038;-69
2021/07/17 03:34:30;;;;;;;18.33;8.77;;;20.10;99.90;;;;;;2105833;28;20035;-69
2021/07/17 03:35:30;;;;;;;22.38;10.20;;;20.10;99.90;;;;;;2105949;28;20085;-69
2021/07/17 03:36:31;;;;;;;16.25;9.02;;;20.10;99.90;;;;;;2105714;28;20035;-69
2021/07/17 03:37:32;;;;;;;18.77;9.45;;;20.10;99.90;;;;;;2106154;28;20080;-69
2021/07/17 03:38:32;;;;;;;22.20;9.77;;;20.10;99.90;;;;;;2105891;28;20077;-69
2021/07/17 03:39:33;;;;;;;20.80;8.32;;;20.10;99.90;;;;;;2105422;28;20020;-69
2021/07/17 03:40:33;;;;;;;21.52;9.02;;;20.20;99.90;;;;;;2105914;28;20101;-69
2021/07/17 03:41:36;;;;;;;22.83;9.50;;;20.20;99.90;;;;;;2104921;28;20043;-69
2021/07/17 03:42:36;;;;;;;20.50;9.30;;;20.20;99.90;;;;;;2106119;28;20517;-69
2021/07/17 03:43:37;;;;;;;25.02;10.25;;;20.20;99.90;;;;;;2105876;28;20423;-69
2021/07/17 03:44:37;;;;;;;23.73;9.40;;;20.20;99.90;;;;;;2105803;28;20021;-69
2021/07/17 03:45:38;;;;;;;16.85;9.55;;;20.20;99.90;;;;;;2105786;28;20016;-69
2021/07/17 03:46:38;;;;;;;19.95;9.73;;;20.20;99.90;;;;;;2105556;28;20556;-69
2021/07/17 03:47:39;;;;;;;21.98;9.60;;;20.20;99.90;;;;;;2105656;28;20099;-68
2021/07/17 03:48:40;;;;;;;16.08;8.85;;;20.20;99.90;;;;;;2105996;28;20039;-68
2021/07/17 03:49:40;;;;;;;18.48;9.77;;;20.20;99.90;;;;;;2105534;28;20036;-69
2021/07/17 03:50:41;;;;;;;21.33;10.13;;;20.20;99.90;;;;;;2106043;28;20024;-69
2021/07/17 03:51:41;;;;;;;22.50;10.18;;;20.20;99.90;;;;;;2105116;28;20024;-69
2021/07/17 03:52:42;;;;;;;20.13;9.77;;;20.20;99.90;;;;;;2106074;28;20073;-69
2021/07/17 03:53:43;;;;;;;18.27;8.85;;;20.20;99.90;;;;;;2105753;28;20560;-69
2021/07/17 03:54:43;;;;;;;21.27;9.68;;;20.20;99.90;;;;;;2105795;28;20394;-69
2021/07/17 03:55:44;;;;;;;20.05;9.57;;;20.20;99.90;;;;;;2105487;28;20024;-69
2021/07/17 03:56:44;;;;;;;16.55;8.48;;;20.20;99.90;;;;;;2105839;28;20027;-69
2021/07/17 03:57:45;;;;;;;21.85;9.75;;;20.20;99.90;;;;;;2105760;28;20035;-69
2021/07/17 03:58:45;;;;;;;20.95;10.48;;;20.20;99.90;;;;;;2105887;28;20055;-69
2021/07/17 03:59:46;;;;;;;20.63;9.98;;;20.20;99.90;;;;;;2105736;28;20024;-69
2021/07/17 04:00:46;;;;;;;18.60;9.77;;;20.20;99.90;;;;;;2105867;28;20078;-69
2021/07/17 04:01:47;;;;;;;20.92;10.32;;;20.20;99.90;;;;;;2105164;28;20028;-69
2021/07/17 04:02:47;;;;;;;20.52;10.38;;;20.20;99.90;;;;;;2105749;28;20020;-69
2021/07/17 04:03:50;;;;;;;21.67;10.02;;;20.20;99.90;;;;;;2105911;28;20097;-69
2021/07/17 04:04:51;;;;;;;18.92;10.50;;;20.20;99.90;;;;;;2105611;28;20524;-69
2021/07/17 04:05:52;;;;;;;23.98;11.32;;;20.20;99.90;;;;;;2105657;28;20055;-69
2021/07/17 04:06:52;;;;;;;25.83;10.95;;;20.20;99.90;;;;;;2105895;28;20035;-69
2021/07/17 04:07:53;;;;;;;21.92;10.40;;;20.20;99.90;;;;;;2105740;28;20475;-69
2021/07/17 04:08:53;;;;;;;24.17;10.38;;;20.20;99.90;;;;;;2105803;28;20028;-69
2021/07/17 04:09:54;;;;;;;18.77;10.43;;;20.20;99.90;;;;;;2105934;28;20058;-69
2021/07/17 04:10:54;;;;;;;21.73;11.40;;;20.20;99.90;;;;;;2105686;28;20020;-69
2021/07/17 04:11:55;;;;;;;24.95;10.82;;;20.20;99.90;;;;;;2105331;28;20091;-69
2021/07/17 04:12:55;;;;;;;19.40;10.23;;;20.20;99.90;;;;;;2105738;28;20020;-69
2021/07/17 04:13:56;;;;;;;25.30;10.35;;;20.20;99.90;;;;;;2105535;28;20076;-69
2021/07/17 04:14:57;;;;;;;20.73;10.73;;;20.20;99.90;;;;;;2105709;28;20028;-69
2021/07/17 04:15:57;;;;;;;26.73;11.60;;;20.20;99.90;;;;;;2105542;28;20024;-69
2021/07/17 04:16:58;;;;;;;20.55;10.43;;;20.20;99.90;;;;;;2098938;28;20071;-68
2021/07/17 04:17:58;;;;;;;29.45;11.15;;;20.20;99.90;;;;;;2106048;28;20028;-69
2021/07/17 04:18:59;;;;;;;23.42;11.02;;;20.20;99.90;;;;;;2105619;28;20386;-69
2021/07/17 04:20:00;;;;;;;23.42;10.98;;;20.20;99.90;;;;;;2105798;28;20056;-69
2021/07/17 04:21:00;;;;;;;20.50;9.93;;;20.10;99.90;;;;;;2105752;28;20035;-69
2021/07/17 04:22:01;;;;;;;20.15;10.38;;;20.10;99.90;;;;;;2105444;28;20048;-69
2021/07/17 04:23:03;;;;;;;22.58;10.40;;;20.10;99.90;;;;;;2105858;28;20036;-69
2021/07/17 04:24:03;;;;;;;20.35;11.40;;;20.10;99.90;;;;;;2105814;28;20467;-69
2021/07/17 04:25:05;;;;;;;24.77;11.35;;;20.10;99.90;;;;;;2105490;28;20448;-69
2021/07/17 04:26:06;;;;;;;26.30;12.13;;;20.10;99.90;;;;;;2105687;28;20410;-69
2021/07/17 04:27:07;;;;;;;24.95;11.55;;;20.10;99.90;;;;;;2105462;28;20046;-68
2021/07/17 04:28:08;;;;;;;24.42;11.13;;;20.10;99.90;;;;;;2105722;28;20091;-68
2021/07/17 04:29:08;;;;;;;25.83;10.55;;;20.10;99.90;;;;;;2106039;28;20028;-68
2021/07/17 04:30:10;;;;;;;23.70;11.32;;;20.10;99.90;;;;;;2107460;28;20044;-69
2021/07/17 04:31:10;;;;;;;23.92;10.77;;;20.10;99.90;;;;;;2107202;28;20447;-69
2021/07/17 04:32:11;;;;;;;24.98;11.98;;;20.10;99.90;;;;;;2106766;28;20401;-68
2021/07/17 04:33:11;;;;;;;23.63;11.82;;;20.00;99.90;;;;;;2107422;28;20024;-68
2021/07/17 04:34:12;;;;;;;20.75;10.98;;;20.00;99.90;;;;;;2107417;28;20016;-69
2021/07/17 04:35:13;;;;;;;22.00;11.48;;;20.00;99.90;;;;;;2107055;28;20042;-68
2021/07/17 04:36:13;;;;;;;26.77;11.27;;;20.10;99.90;;;;;;2107328;28;20031;-69
2021/07/17 04:37:18;;;;;;;24.27;11.95;;;20.10;99.90;;;;;;2107402;28;20056;-69
2021/07/17 04:38:19;;;;;;;23.60;11.25;;;20.00;99.90;;;;;;2107359;28;20025;-69
2021/07/17 04:39:20;;;;;;;23.55;11.20;;;20.00;99.90;;;;;;2107054;28;20024;-69
2021/07/17 04:40:20;;;;;;;24.98;11.32;;;20.10;99.90;;;;;;2107268;28;20024;-69
2021/07/17 04:41:21;;;;;;;25.90;12.15;;;20.10;99.90;;;;;;2106809;28;20024;-68
2021/07/17 04:42:21;;;;;;;22.15;10.88;;;20.10;99.90;;;;;;2106908;28;20101;-69
2021/07/17 04:43:22;;;;;;;24.73;11.05;;;20.00;99.90;;;;;;2107062;28;20025;-69
2021/07/17 04:44:22;;;;;;;24.95;11.93;;;20.00;99.90;;;;;;2107233;28;20025;-69
2021/07/17 04:45:23;;;;;;;20.63;11.90;;;20.10;99.90;;;;;;2107205;28;20028;-69
2021/07/17 04:46:24;;;;;;;26.60;11.20;;;20.00;99.90;;;;;;2107171;28;20036;-69
2021/07/17 04:47:25;;;;;;;20.77;11.20;;;20.10;99.90;;;;;;2107368;28;20020;-69
2021/07/17 04:48:25;;;;;;;22.45;11.27;;;20.00;99.90;;;;;;2107228;28;20024;-68
2021/07/17 04:49:26;;;;;;;22.00;12.18;;;20.10;99.90;;;;;;2107372;28;20047;-69
2021/07/17 04:50:26;;;;;;;25.23;11.95;;;20.10;99.90;;;;;;2107023;28;20397;-69
2021/07/17 04:51:27;;;;;;;26.08;13.07;;;20.10;99.90;;;;;;2106919;28;20028;-68
2021/07/17 04:52:28;;;;;;;27.27;12.15;;;20.10;99.90;;;;;;2106974;28;20059;-68
2021/07/17 04:53:29;;;;;;;29.80;12.20;;;20.10;99.90;;;;;;2106725;28;20047;-69
2021/07/17 04:54:29;;;;;;;27.98;12.50;;;20.10;99.90;;;;;;2107013;28;20038;-68
2021/07/17 04:55:30;;;;;;;29.27;12.00;;;20.10;99.90;;;;;;2107252;28;20043;-69
2021/07/17 04:56:30;;;;;;;27.17;12.15;;;20.10;99.90;;;;;;2107179;28;20451;-68
2021/07/17 04:57:31;;;;;;;26.42;11.93;;;20.20;99.90;;;;;;2107029;28;20028;-69
2021/07/17 04:58:31;;;;;;;23.02;11.77;;;20.10;99.90;;;;;;2107055;28;20052;-69
2021/07/17 04:59:32;;;;;;;30.77;13.05;;;20.10;99.90;;;;;;2107229;28;20070;-68
2021/07/17 05:00:32;;;;;;;30.98;13.10;;;20.10;99.90;;;;;;2106162;28;20467;-68
2021/07/17 05:01:33;;;;;;;22.90;12.25;;;20.10;99.90;;;;;;2105733;28;20461;-69
2021/07/17 05:02:48;;;;;;;24.33;12.02;;;20.10;99.90;;;;;;2106896;28;20080;-69
2021/07/17 05:03:49;;;;;;;23.30;12.75;;;20.10;99.90;;;;;;2107025;28;20020;-69
2021/07/17 05:04:50;;;;;;;26.23;11.57;;;20.10;99.90;;;;;;2107058;28;20035;-69
2021/07/17 05:05:50;;;;;;;25.92;11.68;;;20.10;99.90;;;;;;2107022;28;20020;-69
2021/07/17 05:06:51;;;;;;;27.20;12.43;;;20.10;99.90;;;;;;2107055;28;20040;-69
2021/07/17 05:07:53;;;;;;;29.50;12.68;;;20.10;99.90;;;;;;2107155;28;20428;-68
2021/07/17 05:08:53;;;;;;;28.13;12.65;;;20.10;99.90;;;;;;2106975;28;20107;-69
2021/07/17 05:09:54;;;;;;;25.73;11.95;;;20.10;99.90;;;;;;2107148;28;20039;-69
2021/07/17 05:10:54;;;;;;;22.17;10.90;;;20.10;99.90;;;;;;2106735;28;20028;-68
2021/07/17 05:11:55;;;;;;;21.08;10.48;;;20.10;99.90;;;;;;2106657;28;20456;-69
2021/07/17 05:12:55;;;;;;;23.48;11.68;;;20.10;99.90;;;;;;2106503;28;20024;-69